createdAt,value
2019-05-03T00:02:53.067Z,20.88
2019-05-03T00:05:32.966Z,28.30
2019-05-03T00:08:08.208Z,23.15
2019-05-03T00:10:42.724Z,25.62
2019-05-03T00:13:16.499Z,28.73
2019-05-03T00:15:58.738Z,26.57
2019-05-03T00:18:32.775Z,29.92
2019-05-03T00:21:07.307Z,29.87
2019-05-03T00:23:41.759Z,22.07
2019-05-03T00:26:16.055Z,26.52
2019-05-03T00:28:49.317Z,28.52
2019-05-03T00:31:22.819Z,25.45
2019-05-03T00:34:02.116Z,28.67
2019-05-03T00:36:46.323Z,22.62
2019-05-03T00:39:42.006Z,28.27
2019-05-03T00:42:15.371Z,29.30
2019-05-03T00:47:22.057Z,30.15
2019-05-03T00:49:54.814Z,16.80
2019-05-03T00:52:27.905Z,34.00
2019-05-03T00:57:32.328Z,29.05
2019-05-03T01:00:06.421Z,33.00
2019-05-03T01:02:39.595Z,29.40
2019-05-03T01:05:12.572Z,28.15
2019-05-03T01:07:45.741Z,33.47
2019-05-03T01:10:19.329Z,29.80
2019-05-03T01:12:53.117Z,28.27
2019-05-03T01:16:03.935Z,31.68
2019-05-03T01:18:37.707Z,32.17
2019-05-03T01:21:11.727Z,31.05
2019-05-03T01:23:45.600Z,27.52
2019-05-03T01:26:18.814Z,29.98
2019-05-03T01:28:52.098Z,27.67
2019-05-03T01:31:25.403Z,33.28
2019-05-03T01:33:58.400Z,27.60
2019-05-03T01:36:32.117Z,32.10
2019-05-03T01:39:07.177Z,29.98
2019-05-03T01:41:41.704Z,30.10
2019-05-03T01:44:15.273Z,31.68
2019-05-03T01:49:43.481Z,28.05
2019-05-03T01:52:41.957Z,32.55
2019-05-03T01:55:15.986Z,33.38
2019-05-03T01:57:49.166Z,33.92
2019-05-03T02:00:26.536Z,30.68
2019-05-03T02:03:08.288Z,27.65
2019-05-03T02:05:52.283Z,29.27
2019-05-03T02:08:25.593Z,26.25
2019-05-03T02:10:58.145Z,28.98
2019-05-03T02:13:32.114Z,28.65
2019-05-03T02:16:05.364Z,32.80
2019-05-03T02:18:38.798Z,23.75
2019-05-03T02:21:12.364Z,28.80
2019-05-03T02:23:45.748Z,23.83
2019-05-03T02:28:52.597Z,31.48
2019-05-03T02:31:25.480Z,24.98
2019-05-03T02:33:58.645Z,24.90
2019-05-03T02:39:06.951Z,25.88
2019-05-03T02:41:40.027Z,25.88
2019-05-03T02:44:15.644Z,24.72
2019-05-03T02:47:06.079Z,28.05
2019-05-03T02:49:56.393Z,27.48
2019-05-03T02:52:37.161Z,23.35
2019-05-03T02:55:16.056Z,25.35
2019-05-03T02:57:48.814Z,28.52
2019-05-03T03:00:45.354Z,29.60
2019-05-03T03:03:18.231Z,30.90
2019-05-03T03:05:55.787Z,27.77
2019-05-03T03:08:32.950Z,30.68
2019-05-03T03:11:08.049Z,29.40
2019-05-03T03:13:41.689Z,30.15
2019-05-03T03:16:15.865Z,31.65
2019-05-03T03:18:55.859Z,30.43
2019-05-03T03:21:36.308Z,30.40
2019-05-03T03:24:17.256Z,38.90
2019-05-03T03:26:56.520Z,31.12
2019-05-03T03:29:31.445Z,35.20
2019-05-03T03:32:38.689Z,30.77
2019-05-03T03:35:22.458Z,33.83
2019-05-03T03:37:56.164Z,31.25
2019-05-03T03:43:06.533Z,29.07
2019-05-03T03:45:46.505Z,28.80
2019-05-03T03:48:26.470Z,29.55
2019-05-03T03:51:00.535Z,35.13
2019-05-03T03:53:35.793Z,21.97
2019-05-03T03:56:15.880Z,36.33
2019-05-03T03:58:55.369Z,29.32
2019-05-03T04:01:28.741Z,31.57
2019-05-03T04:04:05.550Z,31.85
2019-05-03T04:06:41.486Z,28.05
2019-05-03T04:09:17.441Z,37.10
2019-05-03T04:11:56.420Z,29.98
2019-05-03T04:14:41.801Z,26.10
2019-05-03T04:17:36.109Z,28.60
2019-05-03T04:20:10.058Z,33.30
2019-05-03T04:22:45.343Z,26.75
2019-05-03T04:25:18.166Z,32.17
2019-05-03T04:27:55.938Z,22.30
2019-05-03T04:30:28.898Z,32.35
2019-05-03T04:33:02.281Z,27.70
2019-05-03T04:38:08.991Z,23.38
2019-05-03T04:40:45.389Z,27.90
2019-05-03T04:43:18.354Z,31.48
2019-05-03T04:48:56.027Z,23.80
2019-05-03T04:51:29.693Z,24.35
2019-05-03T04:54:25.019Z,25.77
2019-05-03T04:56:57.618Z,24.75
2019-05-03T04:59:31.543Z,27.52
2019-05-03T05:02:06.161Z,23.90
2019-05-03T05:04:41.418Z,28.35
2019-05-03T05:07:15.511Z,30.32
2019-05-03T05:09:49.873Z,28.05
2019-05-03T05:12:25.163Z,28.90
2019-05-03T05:14:59.079Z,29.60
2019-05-03T05:17:49.963Z,27.55
2019-05-03T05:20:41.902Z,21.65
2019-05-03T05:23:16.097Z,26.10
2019-05-03T05:25:58.751Z,24.67
2019-05-03T05:29:00.424Z,20.23
2019-05-03T05:31:33.473Z,25.40
2019-05-03T05:34:08.812Z,29.67
2019-05-03T05:36:41.486Z,20.85
2019-05-03T05:39:18.760Z,26.27
2019-05-03T05:41:52.467Z,25.30
2019-05-03T05:44:26.303Z,20.50
2019-05-03T05:47:16.832Z,25.65
2019-05-03T05:50:00.305Z,19.85
2019-05-03T05:52:34.625Z,18.48
2019-05-03T05:55:30.344Z,22.95
2019-05-03T05:58:19.503Z,18.82
2019-05-03T06:00:55.945Z,23.67
2019-05-03T06:03:29.363Z,25.57
2019-05-03T06:08:58.443Z,24.35
2019-05-03T06:11:55.363Z,22.35
2019-05-03T06:14:41.789Z,18.27
2019-05-03T06:17:26.388Z,21.93
2019-05-03T06:20:24.595Z,23.42
2019-05-03T06:23:05.749Z,19.65
2019-05-03T06:25:41.983Z,26.93
2019-05-03T06:28:35.321Z,24.92
2019-05-03T06:31:25.299Z,29.92
2019-05-03T06:33:59.260Z,26.23
2019-05-03T06:36:32.547Z,20.82
2019-05-03T06:39:08.520Z,28.70
2019-05-03T06:41:44.480Z,19.05
2019-05-03T06:44:19.267Z,17.82
2019-05-03T06:46:55.134Z,16.10
2019-05-03T06:49:29.099Z,12.47
2019-05-03T06:52:02.173Z,16.12
2019-05-03T06:54:37.672Z,7.83
2019-05-03T06:57:14.680Z,9.78
2019-05-03T07:00:15.724Z,9.88
2019-05-03T07:03:07.614Z,8.63
2019-05-03T07:05:58.866Z,7.20
2019-05-03T07:08:51.029Z,7.22
2019-05-03T07:11:24.859Z,7.85
2019-05-03T07:13:58.605Z,6.33
2019-05-03T07:16:31.587Z,7.47
2019-05-03T07:19:04.681Z,6.95
2019-05-03T07:24:08.699Z,9.55
2019-05-03T07:26:41.824Z,5.40
2019-05-03T07:31:45.226Z,3.95
2019-05-03T07:34:18.133Z,6.42
2019-05-03T07:36:51.551Z,6.35
2019-05-03T07:39:24.985Z,7.10
2019-05-03T07:44:29.389Z,6.95
2019-05-03T07:47:04.172Z,10.35
2019-05-03T07:49:37.319Z,4.83
2019-05-03T07:54:45.213Z,4.15
2019-05-03T07:57:32.611Z,4.87
2019-05-03T08:00:06.824Z,6.60
2019-05-03T08:02:40.112Z,8.38
2019-05-03T08:05:15.438Z,4.90
2019-05-03T08:07:48.562Z,6.08
2019-05-03T08:10:21.786Z,6.85
2019-05-03T08:12:55.427Z,6.60
2019-05-03T08:15:28.777Z,6.75
2019-05-03T08:20:35.037Z,5.87
2019-05-03T08:23:08.209Z,8.20
2019-05-03T08:25:41.492Z,5.67
2019-05-03T08:28:14.780Z,5.47
2019-05-03T08:33:47.375Z,5.60
2019-05-03T08:36:21.245Z,8.53
2019-05-03T08:38:56.352Z,6.58
2019-05-03T08:41:31.034Z,7.65
2019-05-03T08:44:05.343Z,7.25
2019-05-03T08:46:38.648Z,6.28
2019-05-03T08:51:44.374Z,5.47
2019-05-03T08:54:18.830Z,7.53
2019-05-03T08:56:52.221Z,7.53
2019-05-03T09:02:03.590Z,8.03
2019-05-03T09:04:37.904Z,6.92
2019-05-03T09:07:09.177Z,7.30
2019-05-03T09:10:12.042Z,5.20
2019-05-03T09:13:03.282Z,6.22
2019-05-03T09:15:35.166Z,13.68
2019-05-03T09:20:40.060Z,4.13
2019-05-03T09:23:14.721Z,7.30
2019-05-03T09:25:48.002Z,4.53
2019-05-03T09:28:21.757Z,4.58
2019-05-03T09:30:55.593Z,4.05
2019-05-03T09:33:28.509Z,3.10
2019-05-03T09:36:01.681Z,3.52
2019-05-03T09:38:36.034Z,5.05
2019-05-03T09:41:09.357Z,1.98
2019-05-03T09:46:14.758Z,1.33
2019-05-03T09:48:48.018Z,1.77
2019-05-03T09:51:20.685Z,2.22
2019-05-03T09:53:57.664Z,1.32
2019-05-03T09:57:08.349Z,2.72
2019-05-03T09:59:54.264Z,0.95
2019-05-03T10:02:17.825Z,4.37
2019-05-03T10:04:51.133Z,2.55
2019-05-03T10:09:59.296Z,1.32
2019-05-03T10:12:33.302Z,1.25
2019-05-03T10:15:07.220Z,1.40
2019-05-03T10:17:59.539Z,1.55
2019-05-03T10:20:34.850Z,1.50
2019-05-03T10:23:27.652Z,1.47
2019-05-03T10:26:01.625Z,1.65
2019-05-03T10:28:35.022Z,1.62
2019-05-03T10:31:08.402Z,1.10
2019-05-03T10:33:49.306Z,1.20
2019-05-03T10:36:24.790Z,0.90
2019-05-03T10:38:58.276Z,1.12
2019-05-03T10:41:31.946Z,0.87
2019-05-03T10:44:06.107Z,1.10
2019-05-03T10:46:39.821Z,0.80
2019-05-03T10:49:15.309Z,1.12
2019-05-03T10:51:54.866Z,1.30
2019-05-03T10:54:28.368Z,1.20
2019-05-03T10:57:10.974Z,2.47
2019-05-03T10:59:44.852Z,1.23
2019-05-03T11:02:42.378Z,1.15
2019-05-03T11:05:15.633Z,0.90
2019-05-03T11:07:48.912Z,1.57
2019-05-03T11:10:22.826Z,1.98
2019-05-03T11:12:56.226Z,1.25
2019-05-03T11:15:29.337Z,2.27
2019-05-03T11:18:02.522Z,0.90
2019-05-03T11:20:39.510Z,1.10
2019-05-03T11:23:14.479Z,1.07
2019-05-03T11:25:46.707Z,1.63
2019-05-03T11:28:25.044Z,1.72
2019-05-03T11:31:02.190Z,1.30
2019-05-03T11:33:40.526Z,1.47
2019-05-03T11:36:20.282Z,1.80
2019-05-03T11:38:53.435Z,2.70
2019-05-03T11:41:32.093Z,3.47
2019-05-03T11:44:21.817Z,2.17
2019-05-03T11:46:55.613Z,1.33
2019-05-03T11:49:28.831Z,1.70
2019-05-03T11:52:01.819Z,1.27
2019-05-03T11:54:35.934Z,1.47
2019-05-03T11:57:15.731Z,1.77
2019-05-03T11:59:48.959Z,2.00
2019-05-03T12:02:41.153Z,3.50
2019-05-03T12:05:29.125Z,2.40
2019-05-03T12:08:02.079Z,2.87
2019-05-03T12:15:44.833Z,1.57
2019-05-03T12:20:51.315Z,4.67
2019-05-03T12:23:25.846Z,2.43
2019-05-03T12:25:59.973Z,5.93
2019-05-03T12:28:35.300Z,1.83
2019-05-03T12:31:07.920Z,2.27
2019-05-03T12:33:41.357Z,1.70
2019-05-03T12:36:15.545Z,2.00
2019-05-03T12:38:48.676Z,1.50
2019-05-03T12:41:22.284Z,3.37
2019-05-03T12:43:55.656Z,2.67
2019-05-03T12:46:29.099Z,1.55
2019-05-03T12:49:05.118Z,5.28
2019-05-03T12:51:37.941Z,1.95
2019-05-03T12:54:11.312Z,4.42
2019-05-03T12:56:45.388Z,3.60
2019-05-03T12:59:26.755Z,3.30
2019-05-03T13:02:15.380Z,2.47
2019-05-03T13:04:52.081Z,1.95
2019-05-03T13:07:46.822Z,2.05
2019-05-03T13:10:23.198Z,9.15
2019-05-03T13:12:56.063Z,3.05
2019-05-03T13:15:29.514Z,1.98
2019-05-03T13:18:02.153Z,2.58
2019-05-03T13:20:36.134Z,3.27
2019-05-03T13:23:09.342Z,1.60
2019-05-03T13:25:44.620Z,2.58
2019-05-03T13:28:17.952Z,4.53
2019-05-03T13:30:51.706Z,2.30
2019-05-03T13:33:25.749Z,2.40
2019-05-03T13:35:59.937Z,1.87
2019-05-03T13:38:34.931Z,2.10
2019-05-03T13:41:08.541Z,2.20
2019-05-03T13:46:12.226Z,3.55
2019-05-03T13:48:48.888Z,2.62
2019-05-03T13:51:20.070Z,4.62
2019-05-03T13:53:55.080Z,2.77
2019-05-03T13:56:28.940Z,4.35
2019-05-03T13:59:04.534Z,4.10
2019-05-03T14:01:37.503Z,2.83
2019-05-03T14:04:10.877Z,4.17
2019-05-03T14:06:44.864Z,2.35
2019-05-03T14:09:18.574Z,4.30
2019-05-03T14:11:51.515Z,3.25
2019-05-03T14:14:25.840Z,5.15
2019-05-03T14:16:59.007Z,3.20
2019-05-03T14:19:36.867Z,3.55
2019-05-03T14:22:12.480Z,3.62
2019-05-03T14:24:49.672Z,2.55
2019-05-03T14:27:22.766Z,4.12
2019-05-03T14:29:56.148Z,2.85
2019-05-03T14:32:29.242Z,2.95
2019-05-03T14:35:02.938Z,3.62
2019-05-03T14:37:47.482Z,3.95
2019-05-03T14:40:25.088Z,3.40
2019-05-03T14:42:59.764Z,6.97
2019-05-03T14:45:34.993Z,3.40
2019-05-03T14:48:08.668Z,2.67
2019-05-03T14:50:41.992Z,3.10
2019-05-03T14:56:00.083Z,2.77
2019-05-03T14:59:07.890Z,2.90
2019-05-03T15:01:55.228Z,2.72
2019-05-03T15:04:29.849Z,5.58
2019-05-03T15:07:21.525Z,4.65
2019-05-03T15:09:55.323Z,2.75
2019-05-03T15:12:28.884Z,2.62
2019-05-03T15:17:35.066Z,2.10
2019-05-03T15:20:09.936Z,2.52
2019-05-03T15:22:45.378Z,7.53
2019-05-03T15:25:18.747Z,4.42
2019-05-03T15:27:53.006Z,3.58
2019-05-03T15:30:26.054Z,4.00
2019-05-03T15:33:01.003Z,2.42
2019-05-03T15:35:35.118Z,4.75
2019-05-03T15:38:08.971Z,3.15
2019-05-03T15:40:42.125Z,5.67
2019-05-03T15:43:45.386Z,2.87
2019-05-03T15:46:40.562Z,6.17
2019-05-03T15:49:15.249Z,3.20
2019-05-03T15:51:48.359Z,2.97
2019-05-03T15:54:22.488Z,2.53
2019-05-03T15:56:55.879Z,3.93
2019-05-03T15:59:28.625Z,4.03
2019-05-03T16:02:01.886Z,3.02
2019-05-03T16:04:35.687Z,2.70
2019-05-03T16:07:10.299Z,3.70
2019-05-03T16:09:44.557Z,4.13
2019-05-03T16:12:17.425Z,4.53
2019-05-03T16:17:24.384Z,6.08
2019-05-03T16:19:58.561Z,3.90
2019-05-03T16:22:32.136Z,3.53
2019-05-03T16:25:05.709Z,3.47
2019-05-03T16:27:52.949Z,3.50
2019-05-03T16:30:45.446Z,5.97
2019-05-03T16:33:26.992Z,3.37
2019-05-03T16:35:54.880Z,3.10
2019-05-03T16:38:28.030Z,4.93
2019-05-03T16:41:00.970Z,4.43
2019-05-03T16:46:05.618Z,2.50
2019-05-03T16:48:39.099Z,3.47
2019-05-03T16:51:12.224Z,3.53
2019-05-03T16:53:44.951Z,3.37
2019-05-03T16:56:18.881Z,4.37
2019-05-03T16:58:52.734Z,4.20
2019-05-03T17:01:25.745Z,3.43
2019-05-03T17:04:17.353Z,4.83
2019-05-03T17:06:59.605Z,3.77
2019-05-03T17:12:38.197Z,4.30
2019-05-03T17:15:11.345Z,4.27
2019-05-03T17:17:45.213Z,9.03
2019-05-03T17:20:18.613Z,4.83
2019-05-03T17:22:52.711Z,6.87
2019-05-03T17:25:26.378Z,5.10
2019-05-03T17:28:00.097Z,5.60
2019-05-03T17:30:35.153Z,6.78
2019-05-03T17:33:07.791Z,7.00
2019-05-03T17:38:12.228Z,5.20
2019-05-03T17:43:35.402Z,3.25
2019-05-03T17:46:09.766Z,8.23
2019-05-03T17:48:45.409Z,5.22
2019-05-03T17:51:36.916Z,3.42
2019-05-03T17:54:28.948Z,4.72
2019-05-03T17:57:09.483Z,4.60
2019-05-03T17:59:51.378Z,5.15
2019-05-03T18:02:35.594Z,3.85
2019-05-03T18:05:29.438Z,4.40
2019-05-03T18:08:14.236Z,3.30
2019-05-03T18:10:55.041Z,3.08
2019-05-03T18:13:29.147Z,5.08
2019-05-03T18:16:04.740Z,3.80
2019-05-03T18:18:38.196Z,6.75
2019-05-03T18:23:45.415Z,2.67
2019-05-03T18:26:18.938Z,12.20
2019-05-03T18:28:52.438Z,12.20
2019-05-03T18:31:26.109Z,17.42
2019-05-03T18:34:00.055Z,18.25
2019-05-03T18:36:34.660Z,21.20
2019-05-03T18:39:11.483Z,13.03
2019-05-03T18:41:46.171Z,17.77
2019-05-03T18:44:25.976Z,11.45
2019-05-03T18:47:02.884Z,10.82
2019-05-03T18:49:36.304Z,13.45
2019-05-03T18:54:44.391Z,9.40
2019-05-03T18:57:17.926Z,11.15
2019-05-03T18:59:51.258Z,9.78
2019-05-03T19:04:58.696Z,9.08
2019-05-03T19:07:49.574Z,7.92
2019-05-03T19:10:29.402Z,8.68
2019-05-03T19:13:15.443Z,6.20
2019-05-03T19:15:49.425Z,7.17
2019-05-03T19:18:27.441Z,6.30
2019-05-03T19:21:01.179Z,5.85
2019-05-03T19:23:35.498Z,6.15
2019-05-03T19:26:08.784Z,5.53
2019-05-03T19:28:44.413Z,5.42
2019-05-03T19:31:17.247Z,8.13
2019-05-03T19:33:50.327Z,4.12
2019-05-03T19:36:23.139Z,4.72
2019-05-03T19:38:55.638Z,7.60
2019-05-03T19:41:28.749Z,6.58
2019-05-03T19:46:32.614Z,10.13
2019-05-03T19:51:38.156Z,7.58
2019-05-03T19:54:11.851Z,6.33
2019-05-03T19:56:46.850Z,6.60
2019-05-03T19:59:38.107Z,6.37
2019-05-03T20:02:36.155Z,8.28
2019-05-03T20:05:20.079Z,6.37
2019-05-03T20:08:21.598Z,6.17
2019-05-03T20:11:14.831Z,4.92
2019-05-03T20:13:48.978Z,6.67
2019-05-03T20:16:27.058Z,5.78
2019-05-03T20:19:17.081Z,5.45
2019-05-03T20:21:38.428Z,5.17
2019-05-03T20:24:12.110Z,5.90
2019-05-03T20:26:45.736Z,6.40
2019-05-03T20:29:19.123Z,6.50
2019-05-03T20:34:24.854Z,6.12
2019-05-03T20:36:59.093Z,5.67
2019-05-03T20:39:34.685Z,7.30
2019-05-03T20:42:08.414Z,4.55
2019-05-03T20:44:58.750Z,8.40
2019-05-03T20:47:47.116Z,7.87
2019-05-03T20:50:20.871Z,5.47
2019-05-03T20:52:54.989Z,5.10
2019-05-03T20:55:29.084Z,7.10
2019-05-03T20:58:02.741Z,5.83
2019-05-03T21:00:36.134Z,6.08
2019-05-03T21:05:40.593Z,4.12
2019-05-03T21:08:14.820Z,8.43
2019-05-03T21:10:48.518Z,7.70
2019-05-03T21:13:21.517Z,5.22
2019-05-03T21:16:07.221Z,8.35
2019-05-03T21:18:52.326Z,4.00
2019-05-03T21:21:41.624Z,5.15
2019-05-03T21:24:20.056Z,5.72
2019-05-03T21:26:54.756Z,4.62
2019-05-03T21:29:27.732Z,6.45
2019-05-03T21:32:00.636Z,4.70
2019-05-03T21:34:34.578Z,7.00
2019-05-03T21:37:08.681Z,4.72
2019-05-03T21:39:45.430Z,5.75
2019-05-03T21:42:18.963Z,3.83
2019-05-03T21:47:35.151Z,5.55
2019-05-03T21:50:10.983Z,5.55
2019-05-03T21:52:45.790Z,5.75
2019-05-03T21:55:19.645Z,5.60
2019-05-03T21:57:55.272Z,4.83
2019-05-03T22:00:42.665Z,5.65
2019-05-03T22:03:16.290Z,4.00
2019-05-03T22:05:54.903Z,4.47
2019-05-03T22:08:26.690Z,4.47
2019-05-03T22:11:05.506Z,5.20
2019-05-03T22:13:40.644Z,3.75
2019-05-03T22:16:24.653Z,4.83
2019-05-03T22:18:58.816Z,4.60
2019-05-03T22:21:45.263Z,4.90
2019-05-03T22:24:50.035Z,5.60
2019-05-03T22:27:24.779Z,5.20
2019-05-03T22:29:58.952Z,4.62
2019-05-03T22:32:35.361Z,5.53
2019-05-03T22:35:10.123Z,4.70
2019-05-03T22:37:44.782Z,5.08
2019-05-03T22:40:18.721Z,5.22
2019-05-03T22:42:52.763Z,4.75
2019-05-03T22:45:26.017Z,5.80
2019-05-03T22:48:00.151Z,6.78
2019-05-03T22:50:34.454Z,6.60
2019-05-03T22:53:08.920Z,5.35
2019-05-03T22:55:42.060Z,5.08
2019-05-03T22:58:15.997Z,6.12
2019-05-03T23:00:49.323Z,7.37
2019-05-03T23:03:22.454Z,6.08
2019-05-03T23:05:56.027Z,7.70
2019-05-03T23:08:29.654Z,5.53
2019-05-03T23:11:05.596Z,8.10
2019-05-03T23:13:38.983Z,6.62
2019-05-03T23:16:14.316Z,6.30
2019-05-03T23:18:47.619Z,7.15
2019-05-03T23:23:54.993Z,3.52
2019-05-03T23:26:28.964Z,7.30
2019-05-03T23:29:02.006Z,6.95
2019-05-03T23:31:35.482Z,6.80
2019-05-03T23:34:08.936Z,6.58
2019-05-03T23:39:14.978Z,7.40
2019-05-03T23:41:49.425Z,6.95
2019-05-03T23:44:24.455Z,5.67
2019-05-03T23:47:15.429Z,6.10
2019-05-03T23:49:48.605Z,6.12
2019-05-03T23:52:37.859Z,7.30
2019-05-03T23:55:39.947Z,9.73
2019-05-03T23:58:13.386Z,6.80
